createdAt,value
2019-02-17T00:00:01.349Z,21.90
2019-02-17T00:02:29.782Z,20.93
2019-02-17T00:04:58.200Z,20.03
2019-02-17T00:07:26.646Z,28.77
2019-02-17T00:09:55.068Z,20.13
2019-02-17T00:12:23.515Z,16.33
2019-02-17T00:14:51.947Z,19.23
2019-02-17T00:17:20.373Z,24.53
2019-02-17T00:19:48.823Z,24.23
2019-02-17T00:22:17.246Z,28.03
2019-02-17T00:24:45.691Z,23.77
2019-02-17T00:27:14.120Z,27.83
2019-02-17T00:29:42.580Z,20.60
2019-02-17T00:32:11.060Z,22.73
2019-02-17T00:34:39.512Z,23.00
2019-02-17T00:37:07.932Z,19.33
2019-02-17T00:39:36.379Z,17.13
2019-02-17T00:42:04.879Z,14.87
2019-02-17T00:44:33.345Z,18.90
2019-02-17T00:47:01.833Z,15.57
2019-02-17T00:49:30.296Z,17.03
2019-02-17T00:51:58.720Z,18.60
2019-02-17T00:54:27.183Z,23.63
2019-02-17T00:56:55.607Z,18.23
2019-02-17T00:59:24.068Z,20.30
2019-02-17T01:01:52.491Z,27.33
2019-02-17T01:04:20.952Z,20.07
2019-02-17T01:06:49.369Z,20.27
2019-02-17T01:09:17.825Z,18.73
2019-02-17T01:11:46.251Z,17.27
2019-02-17T01:14:14.707Z,16.57
2019-02-17T01:16:43.140Z,17.40
2019-02-17T01:19:11.593Z,17.07
2019-02-17T01:21:40.017Z,16.87
2019-02-17T01:24:08.642Z,17.97
2019-02-17T01:26:37.071Z,16.80
2019-02-17T01:29:05.520Z,16.37
2019-02-17T01:31:33.939Z,18.67
2019-02-17T01:34:05.581Z,20.33
2019-02-17T01:36:34.005Z,20.37
2019-02-17T01:39:02.425Z,20.30
2019-02-17T01:41:30.875Z,22.97
2019-02-17T01:43:59.301Z,21.97
2019-02-17T01:46:27.755Z,20.37
2019-02-17T01:48:56.183Z,19.67
2019-02-17T01:51:24.632Z,20.07
2019-02-17T01:53:53.063Z,17.83
2019-02-17T01:56:21.521Z,18.67
2019-02-17T01:58:49.940Z,16.07
2019-02-17T02:01:18.461Z,18.40
2019-02-17T02:03:46.893Z,14.70
2019-02-17T02:06:16.291Z,20.80
2019-02-17T02:08:44.716Z,20.23
2019-02-17T02:11:13.243Z,15.23
2019-02-17T02:13:41.673Z,19.40
2019-02-17T02:16:10.190Z,17.20
2019-02-17T02:18:38.671Z,17.50
2019-02-17T02:21:07.145Z,20.00
2019-02-17T02:23:35.577Z,15.90
2019-02-17T02:26:04.018Z,15.53
2019-02-17T02:28:32.435Z,17.20
2019-02-17T02:31:00.884Z,16.53
2019-02-17T02:33:29.309Z,19.50
2019-02-17T02:35:57.765Z,17.53
2019-02-17T02:38:26.180Z,16.00
2019-02-17T02:40:54.630Z,18.40
2019-02-17T02:43:23.059Z,17.57
2019-02-17T02:45:51.575Z,16.03
2019-02-17T02:48:19.997Z,14.70
2019-02-17T02:50:48.516Z,15.20
2019-02-17T02:53:16.939Z,19.03
2019-02-17T02:55:45.390Z,18.37
2019-02-17T02:58:13.812Z,16.23
2019-02-17T03:00:42.241Z,13.60
2019-02-17T03:03:10.697Z,14.20
2019-02-17T03:05:40.768Z,17.57
2019-02-17T03:08:09.229Z,17.90
2019-02-17T03:10:37.638Z,15.13
2019-02-17T03:13:06.092Z,17.53
2019-02-17T03:15:34.514Z,17.23
2019-02-17T03:18:02.970Z,19.27
2019-02-17T03:20:31.382Z,16.07
2019-02-17T03:22:59.852Z,15.90
2019-02-17T03:25:28.273Z,16.43
2019-02-17T03:27:56.724Z,16.30
2019-02-17T03:30:25.134Z,15.40
2019-02-17T03:32:53.585Z,15.73
2019-02-17T03:35:22.002Z,12.90
2019-02-17T03:37:50.458Z,16.83
2019-02-17T03:40:18.871Z,13.77
2019-02-17T03:42:47.321Z,16.90
2019-02-17T03:45:15.743Z,15.50
2019-02-17T03:47:44.191Z,15.40
2019-02-17T03:50:12.613Z,18.33
2019-02-17T03:52:41.124Z,18.10
2019-02-17T03:55:09.693Z,16.40
2019-02-17T03:57:38.131Z,18.43
2019-02-17T04:00:16.549Z,15.77
2019-02-17T04:02:38.379Z,16.20
2019-02-17T04:05:06.978Z,19.00
2019-02-17T04:07:35.429Z,20.80
2019-02-17T04:10:03.924Z,17.63
2019-02-17T04:12:32.384Z,20.50
2019-02-17T04:15:00.872Z,16.87
2019-02-17T04:17:29.317Z,15.20
2019-02-17T04:19:57.744Z,16.73
2019-02-17T04:22:26.205Z,15.63
2019-02-17T04:24:54.614Z,23.27
2019-02-17T04:27:23.136Z,19.00
2019-02-17T04:29:51.562Z,18.20
2019-02-17T04:32:20.019Z,19.73
2019-02-17T04:34:48.443Z,17.73
2019-02-17T04:37:17.041Z,17.50
2019-02-17T04:39:45.456Z,19.93
2019-02-17T04:42:13.886Z,18.73
2019-02-17T04:44:42.342Z,16.87
2019-02-17T04:47:10.758Z,16.03
2019-02-17T04:49:39.214Z,19.30
2019-02-17T04:52:07.642Z,15.10
2019-02-17T04:54:36.092Z,17.10
2019-02-17T04:57:04.514Z,17.57
2019-02-17T04:59:32.958Z,14.90
2019-02-17T05:02:01.385Z,18.87
2019-02-17T05:04:29.840Z,16.40
2019-02-17T05:06:58.263Z,16.63
2019-02-17T05:09:26.717Z,20.83
2019-02-17T05:11:55.138Z,15.70
2019-02-17T05:14:23.596Z,20.77
2019-02-17T05:16:52.021Z,16.40
2019-02-17T05:19:20.467Z,16.70
2019-02-17T05:21:48.893Z,17.60
2019-02-17T05:24:17.335Z,14.90
2019-02-17T05:26:45.758Z,15.20
2019-02-17T05:29:14.202Z,15.90
2019-02-17T05:31:42.632Z,16.43
2019-02-17T05:34:11.074Z,13.90
2019-02-17T05:36:39.491Z,14.33
2019-02-17T05:39:07.936Z,16.53
2019-02-17T05:41:36.358Z,14.97
2019-02-17T05:44:04.875Z,15.10
2019-02-17T05:46:33.287Z,16.33
2019-02-17T05:49:01.733Z,14.40
2019-02-17T05:51:30.153Z,17.87
2019-02-17T05:53:58.604Z,16.13
2019-02-17T05:56:27.033Z,17.53
2019-02-17T05:58:55.477Z,15.67
2019-02-17T06:01:23.893Z,15.57
2019-02-17T06:03:52.348Z,19.63
2019-02-17T06:06:20.842Z,14.57
2019-02-17T06:08:49.281Z,15.30
2019-02-17T06:11:17.706Z,15.13
2019-02-17T06:13:46.160Z,17.93
2019-02-17T06:16:14.585Z,15.90
2019-02-17T06:18:43.043Z,21.00
2019-02-17T06:21:11.471Z,18.30
2019-02-17T06:23:39.922Z,21.63
2019-02-17T06:26:08.354Z,18.37
2019-02-17T06:28:36.779Z,17.00
2019-02-17T06:31:13.954Z,16.47
2019-02-17T06:33:35.366Z,14.40
2019-02-17T06:36:03.815Z,17.67
2019-02-17T06:38:32.246Z,18.90
2019-02-17T06:41:00.696Z,16.23
2019-02-17T06:43:29.128Z,14.00
2019-02-17T06:45:57.579Z,18.40
2019-02-17T06:48:26.001Z,17.53
2019-02-17T06:50:54.454Z,18.30
2019-02-17T06:53:22.876Z,18.30
2019-02-17T06:55:52.960Z,19.10
2019-02-17T06:58:21.455Z,23.77
2019-02-17T07:00:49.909Z,24.93
2019-02-17T07:03:18.342Z,25.67
2019-02-17T07:05:51.127Z,21.17
2019-02-17T07:08:19.545Z,21.73
2019-02-17T07:10:47.988Z,23.90
2019-02-17T07:13:16.418Z,17.07
2019-02-17T07:15:44.870Z,13.53
2019-02-17T07:18:13.285Z,16.20
2019-02-17T07:20:41.744Z,19.13
2019-02-17T07:23:10.167Z,18.83
2019-02-17T07:25:38.614Z,19.67
2019-02-17T07:28:07.046Z,17.37
2019-02-17T07:30:35.498Z,20.17
2019-02-17T07:33:03.924Z,15.53
2019-02-17T07:35:32.373Z,16.50
2019-02-17T07:38:00.799Z,17.77
2019-02-17T07:40:29.251Z,21.87
2019-02-17T07:42:57.683Z,20.83
2019-02-17T07:45:26.131Z,22.20
2019-02-17T07:47:54.564Z,22.50
2019-02-17T07:50:23.007Z,19.23
2019-02-17T07:52:51.433Z,18.77
2019-02-17T07:55:19.891Z,24.43
2019-02-17T07:57:48.314Z,25.73
2019-02-17T08:00:16.772Z,19.10
2019-02-17T08:02:45.201Z,21.83
2019-02-17T08:05:13.655Z,19.60
2019-02-17T08:07:42.077Z,17.37
2019-02-17T08:10:10.794Z,19.80
2019-02-17T08:12:39.220Z,22.97
2019-02-17T08:15:10.113Z,17.03
2019-02-17T08:17:38.533Z,21.00
2019-02-17T08:20:09.602Z,26.63
2019-02-17T08:22:38.019Z,28.70
2019-02-17T08:25:08.120Z,24.00
2019-02-17T08:27:36.540Z,23.67
2019-02-17T08:30:07.971Z,25.07
2019-02-17T08:32:36.418Z,24.47
2019-02-17T08:35:05.089Z,25.50
2019-02-17T08:37:33.541Z,28.80
2019-02-17T08:40:01.970Z,32.20
2019-02-17T08:42:30.423Z,28.67
2019-02-17T08:44:58.847Z,27.40
2019-02-17T08:47:27.299Z,25.97
2019-02-17T08:49:55.724Z,27.27
2019-02-17T08:52:24.177Z,36.43
2019-02-17T08:54:52.602Z,30.30
2019-02-17T08:57:21.062Z,31.63
2019-02-17T08:59:49.493Z,30.03
2019-02-17T09:02:17.951Z,36.07
2019-02-17T09:04:46.372Z,37.03
2019-02-17T09:07:14.822Z,37.00
2019-02-17T09:09:43.241Z,38.77
2019-02-17T09:12:11.694Z,42.97
2019-02-17T09:14:40.124Z,38.77
2019-02-17T09:17:08.594Z,43.03
2019-02-17T09:19:37.015Z,41.67
2019-02-17T09:22:05.471Z,42.27
2019-02-17T09:24:33.965Z,42.07
2019-02-17T09:27:02.411Z,45.10
2019-02-17T09:29:30.844Z,42.30
2019-02-17T09:31:59.587Z,44.40
2019-02-17T09:34:28.003Z,41.50
2019-02-17T09:36:56.454Z,46.90
2019-02-17T09:39:24.889Z,41.20
2019-02-17T09:41:53.336Z,44.63
2019-02-17T09:44:21.762Z,39.73
2019-02-17T09:46:50.211Z,48.70
2019-02-17T09:49:18.643Z,41.60
2019-02-17T09:51:47.163Z,38.43
2019-02-17T09:54:15.601Z,44.90
2019-02-17T09:56:44.072Z,38.00
2019-02-17T09:59:12.504Z,42.73
2019-02-17T10:01:42.695Z,38.87
2019-02-17T10:04:11.242Z,40.13
2019-02-17T10:06:39.685Z,48.60
2019-02-17T10:09:08.108Z,45.20
2019-02-17T10:11:36.558Z,43.27
2019-02-17T10:14:05.045Z,44.83
2019-02-17T10:16:33.473Z,49.13
2019-02-17T10:19:01.972Z,51.47
2019-02-17T10:21:30.419Z,53.03
2019-02-17T10:23:58.870Z,48.43
2019-02-17T10:26:27.362Z,46.57
2019-02-17T10:28:55.820Z,47.50
2019-02-17T10:31:24.316Z,50.80
2019-02-17T10:33:52.772Z,52.47
2019-02-17T10:36:21.195Z,49.33
2019-02-17T10:38:49.661Z,46.40
2019-02-17T10:41:18.098Z,56.37
2019-02-17T10:43:46.622Z,46.80
2019-02-17T10:46:15.054Z,57.40
2019-02-17T10:48:43.506Z,49.90
2019-02-17T10:51:11.940Z,47.67
2019-02-17T10:53:40.396Z,52.40
2019-02-17T10:56:08.825Z,55.60
2019-02-17T10:58:37.292Z,53.67
2019-02-17T11:01:05.723Z,50.37
2019-02-17T11:03:34.178Z,52.23
2019-02-17T11:06:02.597Z,57.23
2019-02-17T11:08:31.050Z,49.00
2019-02-17T11:10:59.486Z,45.47
2019-02-17T11:13:27.944Z,46.77
2019-02-17T11:15:56.368Z,46.97
2019-02-17T11:18:24.899Z,46.13
2019-02-17T11:20:53.399Z,49.33
2019-02-17T11:23:21.865Z,51.03
2019-02-17T11:25:50.291Z,49.73
2019-02-17T11:28:18.753Z,52.43
2019-02-17T11:30:47.238Z,47.93
2019-02-17T11:33:15.705Z,48.23
2019-02-17T11:35:44.136Z,47.20
2019-02-17T11:38:12.603Z,50.23
2019-02-17T11:40:41.098Z,44.27
2019-02-17T11:43:09.547Z,49.70
2019-02-17T11:45:37.975Z,45.90
2019-02-17T11:48:06.497Z,51.53
2019-02-17T11:50:34.921Z,47.40
2019-02-17T11:53:03.372Z,46.20
2019-02-17T11:55:31.794Z,44.97
2019-02-17T11:58:00.270Z,47.70
2019-02-17T12:00:28.678Z,43.53
2019-02-17T12:03:07.288Z,47.03
2019-02-17T12:05:27.343Z,43.23
2019-02-17T12:07:55.763Z,48.20
2019-02-17T12:10:24.222Z,42.40
2019-02-17T12:12:52.642Z,47.13
2019-02-17T12:15:21.163Z,42.47
2019-02-17T12:17:49.588Z,46.80
2019-02-17T12:20:27.341Z,44.20
2019-02-17T12:23:06.233Z,42.00
2019-02-17T12:25:36.324Z,43.07
2019-02-17T12:28:06.395Z,41.80
2019-02-17T12:30:34.844Z,43.50
2019-02-17T12:33:03.271Z,46.13
2019-02-17T12:35:31.735Z,41.67
2019-02-17T12:38:00.165Z,44.93
2019-02-17T12:40:28.613Z,41.87
2019-02-17T12:42:57.035Z,44.57
2019-02-17T12:45:25.491Z,43.67
2019-02-17T12:47:57.865Z,39.50
2019-02-17T12:50:24.098Z,41.83
2019-02-17T12:52:52.524Z,41.67
2019-02-17T12:55:21.050Z,53.73
2019-02-17T12:57:49.541Z,47.50
2019-02-17T13:00:18.370Z,40.13
2019-02-17T13:02:47.102Z,44.33
2019-02-17T13:05:15.593Z,46.00
2019-02-17T13:07:44.019Z,46.70
2019-02-17T13:10:12.640Z,45.83
2019-02-17T13:12:41.093Z,44.83
2019-02-17T13:15:13.631Z,43.10
2019-02-17T13:17:42.058Z,45.13
2019-02-17T13:20:12.247Z,45.87
2019-02-17T13:22:40.739Z,47.03
2019-02-17T13:25:12.364Z,45.57
2019-02-17T13:27:40.788Z,41.10
2019-02-17T13:30:24.434Z,46.63
2019-02-17T13:32:52.938Z,42.93
2019-02-17T13:35:21.402Z,41.70
2019-02-17T13:37:49.820Z,44.03
2019-02-17T13:40:18.272Z,42.20
2019-02-17T13:42:47.008Z,44.50
2019-02-17T13:45:16.763Z,42.97
2019-02-17T13:47:45.189Z,43.73
2019-02-17T13:50:15.185Z,42.77
2019-02-17T13:52:43.598Z,46.20
2019-02-17T13:55:12.417Z,44.50
2019-02-17T13:57:40.908Z,40.67
2019-02-17T14:00:17.138Z,42.70
2019-02-17T14:02:45.558Z,40.17
2019-02-17T14:05:14.125Z,42.20
2019-02-17T14:07:42.519Z,44.63
2019-02-17T14:10:12.512Z,42.33
2019-02-17T14:12:40.944Z,45.10
2019-02-17T14:15:17.564Z,42.57
2019-02-17T14:17:45.982Z,42.90
2019-02-17T14:20:14.602Z,42.57
2019-02-17T14:22:43.082Z,42.00
2019-02-17T14:25:11.750Z,40.57
2019-02-17T14:27:40.285Z,40.60
2019-02-17T14:30:14.698Z,41.20
2019-02-17T14:32:43.217Z,45.80
2019-02-17T14:35:11.711Z,45.50
2019-02-17T14:37:40.164Z,41.83
2019-02-17T14:40:11.673Z,41.53
2019-02-17T14:42:40.134Z,43.77
2019-02-17T14:45:15.749Z,43.23
2019-02-17T14:47:44.281Z,41.70
2019-02-17T14:50:13.442Z,45.57
2019-02-17T14:52:41.891Z,38.83
2019-02-17T14:55:11.657Z,45.20
2019-02-17T14:57:40.113Z,46.40
2019-02-17T15:00:15.927Z,39.43
2019-02-17T15:02:44.461Z,41.17
2019-02-17T15:05:12.880Z,50.00
2019-02-17T15:07:41.325Z,50.37
2019-02-17T15:10:14.234Z,43.50
2019-02-17T15:12:42.763Z,41.70
2019-02-17T15:15:12.731Z,41.67
2019-02-17T15:17:41.186Z,46.07
2019-02-17T15:20:12.451Z,44.80
2019-02-17T15:22:40.907Z,49.63
2019-02-17T15:25:11.386Z,38.10
2019-02-17T15:27:39.903Z,48.97
2019-02-17T15:30:17.604Z,44.10
2019-02-17T15:32:45.570Z,42.67
2019-02-17T15:35:13.998Z,43.00
2019-02-17T15:37:42.458Z,42.50
2019-02-17T15:40:12.612Z,43.50
2019-02-17T15:42:43.101Z,43.67
2019-02-17T15:45:12.464Z,41.57
2019-02-17T15:47:40.919Z,46.40
2019-02-17T15:50:11.280Z,44.03
2019-02-17T15:52:39.760Z,45.03
2019-02-17T15:55:13.077Z,42.67
2019-02-17T15:57:41.524Z,48.67
2019-02-17T16:00:16.003Z,50.57
2019-02-17T16:02:44.451Z,45.17
2019-02-17T16:05:13.033Z,43.20
2019-02-17T16:07:41.489Z,46.60
2019-02-17T16:10:13.823Z,46.87
2019-02-17T16:12:42.275Z,45.90
2019-02-17T16:15:16.388Z,45.00
2019-02-17T16:17:44.842Z,52.73
2019-02-17T16:20:14.302Z,45.27
2019-02-17T16:22:42.823Z,47.37
2019-02-17T16:25:12.193Z,50.50
2019-02-17T16:27:41.303Z,47.50
2019-02-17T16:30:18.818Z,51.63
2019-02-17T16:32:47.329Z,51.67
2019-02-17T16:35:15.754Z,44.83
2019-02-17T16:37:44.277Z,48.30
2019-02-17T16:40:17.150Z,46.43
2019-02-17T16:42:45.605Z,49.40
2019-02-17T16:45:15.568Z,47.73
2019-02-17T16:47:45.727Z,45.93
2019-02-17T16:50:19.967Z,44.20
2019-02-17T16:52:48.421Z,47.13
2019-02-17T16:55:16.920Z,47.40
2019-02-17T16:57:45.447Z,43.33
2019-02-17T17:00:18.153Z,41.67
2019-02-17T17:02:46.675Z,49.23
2019-02-17T17:05:15.279Z,45.50
2019-02-17T17:07:43.806Z,44.43
2019-02-17T17:10:12.229Z,42.30
2019-02-17T17:12:41.019Z,45.53
2019-02-17T17:15:10.312Z,47.53
2019-02-17T17:17:38.805Z,48.50
2019-02-17T17:20:15.447Z,49.73
2019-02-17T17:22:43.938Z,48.20
2019-02-17T17:25:12.837Z,43.03
2019-02-17T17:27:41.499Z,42.50
2019-02-17T17:30:14.916Z,42.50
2019-02-17T17:32:43.348Z,44.87
2019-02-17T17:35:11.879Z,45.83
2019-02-17T17:37:40.369Z,48.70
2019-02-17T17:40:15.609Z,45.30
2019-02-17T17:42:44.102Z,46.40
2019-02-17T17:45:22.607Z,46.57
2019-02-17T17:47:51.039Z,46.93
2019-02-17T17:50:19.499Z,51.73
2019-02-17T17:52:48.077Z,52.97
2019-02-17T17:55:16.553Z,43.97
2019-02-17T17:57:45.044Z,43.80
2019-02-17T18:00:19.195Z,46.03
2019-02-17T18:02:47.623Z,48.63
2019-02-17T18:05:16.146Z,41.53
2019-02-17T18:07:44.580Z,40.40
2019-02-17T18:10:14.573Z,41.73
2019-02-17T18:12:43.000Z,43.20
2019-02-17T18:15:19.190Z,43.80
2019-02-17T18:17:54.193Z,46.37
2019-02-17T18:20:17.927Z,44.30
2019-02-17T18:22:46.474Z,44.77
2019-02-17T18:25:15.196Z,50.50
2019-02-17T18:27:43.619Z,50.40
2019-02-17T18:30:18.924Z,47.00
2019-02-17T18:32:47.345Z,51.20
2019-02-17T18:35:19.605Z,37.50
2019-02-17T18:37:45.933Z,45.27
2019-02-17T18:40:15.717Z,39.70
2019-02-17T18:42:44.204Z,44.23
2019-02-17T18:45:13.962Z,40.13
2019-02-17T18:47:42.491Z,41.13
2019-02-17T18:50:15.911Z,46.83
2019-02-17T18:52:44.354Z,41.63
2019-02-17T18:55:14.491Z,47.20
2019-02-17T18:57:50.221Z,44.60
2019-02-17T19:00:15.816Z,42.90
2019-02-17T19:02:44.261Z,47.60
2019-02-17T19:05:12.747Z,44.27
2019-02-17T19:07:41.272Z,41.23
2019-02-17T19:10:13.948Z,42.50
2019-02-17T19:12:42.474Z,38.30
2019-02-17T19:15:13.802Z,41.40
2019-02-17T19:17:42.327Z,47.50
2019-02-17T19:20:13.667Z,51.33
2019-02-17T19:22:42.121Z,50.53
2019-02-17T19:25:10.717Z,47.60
2019-02-17T19:27:39.239Z,48.57
2019-02-17T19:30:10.477Z,50.63
2019-02-17T19:32:38.935Z,52.13
2019-02-17T19:35:10.206Z,47.97
2019-02-17T19:37:38.656Z,56.23
2019-02-17T19:40:09.937Z,50.27
2019-02-17T19:42:38.389Z,48.07
2019-02-17T19:45:09.916Z,46.40
2019-02-17T19:47:38.376Z,43.73
2019-02-17T19:50:09.618Z,42.80
2019-02-17T19:52:38.071Z,35.07
2019-02-17T19:55:07.947Z,45.93
2019-02-17T19:57:36.400Z,45.60
2019-02-17T20:00:08.151Z,51.30
2019-02-17T20:02:38.240Z,51.93
2019-02-17T20:05:08.973Z,46.67
2019-02-17T20:07:37.416Z,48.47
2019-02-17T20:10:08.553Z,51.83
2019-02-17T20:12:37.025Z,52.80
2019-02-17T20:15:07.787Z,50.10
2019-02-17T20:17:36.203Z,39.73
2019-02-17T20:20:07.693Z,45.27
2019-02-17T20:22:36.121Z,47.83
2019-02-17T20:25:05.720Z,53.33
2019-02-17T20:27:34.150Z,42.93
2019-02-17T20:30:02.607Z,45.53
2019-02-17T20:32:31.116Z,44.83
2019-02-17T20:34:59.558Z,48.37
2019-02-17T20:37:27.987Z,49.03
2019-02-17T20:39:56.435Z,46.17
2019-02-17T20:42:24.857Z,46.10
2019-02-17T20:44:53.307Z,50.13
2019-02-17T20:47:21.739Z,49.83
2019-02-17T20:49:50.186Z,47.60
2019-02-17T20:52:18.619Z,45.77
2019-02-17T20:54:47.073Z,43.40
2019-02-17T20:57:15.493Z,43.40
2019-02-17T20:59:43.951Z,47.57
2019-02-17T21:02:12.376Z,48.30
2019-02-17T21:04:40.907Z,45.70
2019-02-17T21:07:09.480Z,49.27
2019-02-17T21:09:37.940Z,43.33
2019-02-17T21:12:06.377Z,44.53
2019-02-17T21:14:34.910Z,50.83
2019-02-17T21:17:03.331Z,55.30
2019-02-17T21:19:31.787Z,50.47
2019-02-17T21:22:00.214Z,50.50
2019-02-17T21:24:28.668Z,53.60
2019-02-17T21:26:57.090Z,55.73
2019-02-17T21:29:25.534Z,57.67
2019-02-17T21:31:53.961Z,47.63
2019-02-17T21:34:22.417Z,49.67
2019-02-17T21:36:50.912Z,47.00
2019-02-17T21:39:19.367Z,44.50
2019-02-17T21:41:47.803Z,49.67
2019-02-17T21:44:16.740Z,42.63
2019-02-17T21:46:45.260Z,46.23
2019-02-17T21:49:13.674Z,41.00
2019-02-17T21:51:42.199Z,40.97
2019-02-17T21:54:10.627Z,55.47
2019-02-17T21:56:39.073Z,43.80
2019-02-17T21:59:07.502Z,39.70
2019-02-17T22:01:35.950Z,39.50
2019-02-17T22:04:04.458Z,37.90
2019-02-17T22:06:33.798Z,40.17
2019-02-17T22:09:02.324Z,37.83
2019-02-17T22:11:30.770Z,39.50
2019-02-17T22:13:59.197Z,34.33
2019-02-17T22:16:27.651Z,44.83
2019-02-17T22:18:56.142Z,52.60
2019-02-17T22:21:24.613Z,49.43
2019-02-17T22:23:53.028Z,57.23
2019-02-17T22:26:21.483Z,66.47
2019-02-17T22:28:49.912Z,59.00
2019-02-17T22:31:18.367Z,59.50
2019-02-17T22:33:46.795Z,58.87
2019-02-17T22:36:15.250Z,54.70
2019-02-17T22:38:43.686Z,48.87
2019-02-17T22:41:12.133Z,50.53
2019-02-17T22:43:40.551Z,50.93
2019-02-17T22:46:09.012Z,54.37
2019-02-17T22:48:37.436Z,61.60
2019-02-17T22:51:05.887Z,64.17
2019-02-17T22:53:43.361Z,60.80
2019-02-17T22:56:04.560Z,56.10
2019-02-17T22:58:32.984Z,57.40
2019-02-17T23:01:02.479Z,47.83
2019-02-17T23:03:31.355Z,57.43
2019-02-17T23:05:59.874Z,54.23
2019-02-17T23:08:28.301Z,48.20
2019-02-17T23:10:56.749Z,46.63
2019-02-17T23:13:25.238Z,57.27
2019-02-17T23:15:53.761Z,46.87
2019-02-17T23:18:22.183Z,47.93
2019-02-17T23:20:50.611Z,50.37
2019-02-17T23:23:19.060Z,54.77
2019-02-17T23:25:47.486Z,50.97
2019-02-17T23:28:15.937Z,50.17
2019-02-17T23:30:44.354Z,56.13
2019-02-17T23:33:12.803Z,60.53
2019-02-17T23:35:41.234Z,54.57
2019-02-17T23:38:09.681Z,61.00
2019-02-17T23:40:38.100Z,53.90
2019-02-17T23:43:06.629Z,41.00
2019-02-17T23:45:35.055Z,42.27
2019-02-17T23:48:03.509Z,46.00
2019-02-17T23:50:32.330Z,42.50
2019-02-17T23:53:00.753Z,49.57
2019-02-17T23:55:29.249Z,43.07
2019-02-17T23:57:57.702Z,44.80
